createdAt,value
2017-08-31T00:00:03.560Z,21.00
2017-08-31T00:02:29.768Z,21.00
2017-08-31T00:04:57.747Z,21.00
2017-08-31T00:07:25.660Z,21.10
2017-08-31T00:09:51.899Z,21.10
2017-08-31T00:12:18.061Z,21.10
2017-08-31T00:14:44.288Z,21.10
2017-08-31T00:17:10.440Z,21.10
2017-08-31T00:19:36.870Z,21.10
2017-08-31T00:22:03.036Z,21.20
2017-08-31T00:24:29.220Z,21.10
2017-08-31T00:26:55.399Z,21.10
2017-08-31T00:29:21.590Z,21.20
2017-08-31T00:31:47.795Z,21.10
2017-08-31T00:34:14.004Z,21.10
2017-08-31T00:36:40.226Z,21.10
2017-08-31T00:39:06.395Z,21.10
2017-08-31T00:41:33.108Z,21.20
2017-08-31T00:43:59.366Z,21.10
2017-08-31T00:46:25.541Z,21.10
2017-08-31T00:48:51.706Z,21.10
2017-08-31T00:51:17.900Z,21.10
2017-08-31T00:53:44.054Z,21.00
2017-08-31T00:56:10.268Z,21.10
2017-08-31T00:58:36.539Z,21.00
2017-08-31T01:01:02.715Z,21.10
2017-08-31T01:03:28.871Z,21.00
2017-08-31T01:05:55.030Z,21.10
2017-08-31T01:08:21.216Z,21.10
2017-08-31T01:10:47.375Z,21.00
2017-08-31T01:13:13.553Z,21.00
2017-08-31T01:15:39.725Z,21.00
2017-08-31T01:18:05.891Z,21.00
2017-08-31T01:20:32.085Z,21.00
2017-08-31T01:22:58.238Z,21.00
2017-08-31T01:25:24.430Z,21.00
2017-08-31T01:27:50.628Z,21.00
2017-08-31T01:30:16.830Z,21.00
2017-08-31T01:32:43.043Z,21.00
2017-08-31T01:35:09.246Z,21.00
2017-08-31T01:37:35.439Z,21.00
2017-08-31T01:40:01.689Z,21.00
2017-08-31T01:42:27.867Z,21.00
2017-08-31T01:44:54.156Z,21.00
2017-08-31T01:50:29.323Z,20.90
2017-08-31T01:52:55.518Z,21.00
2017-08-31T01:55:21.722Z,21.00
2017-08-31T01:57:47.924Z,20.90
2017-08-31T02:00:17.542Z,20.90
2017-08-31T02:02:43.747Z,20.90
2017-08-31T02:05:09.935Z,20.90
2017-08-31T02:07:36.087Z,20.90
2017-08-31T02:10:02.293Z,20.90
2017-08-31T02:12:28.510Z,20.90
2017-08-31T02:14:54.683Z,20.90
2017-08-31T02:17:23.183Z,20.90
2017-08-31T02:19:49.370Z,20.90
2017-08-31T02:22:15.551Z,20.90
2017-08-31T02:24:41.710Z,20.80
2017-08-31T02:27:08.891Z,20.90
2017-08-31T02:29:35.053Z,20.90
2017-08-31T02:32:01.253Z,20.90
2017-08-31T02:34:27.476Z,20.90
2017-08-31T02:36:53.705Z,20.80
2017-08-31T02:39:19.863Z,20.90
2017-08-31T02:41:46.064Z,20.80
2017-08-31T02:44:12.215Z,20.90
2017-08-31T02:46:38.401Z,20.90
2017-08-31T02:49:04.540Z,20.80
2017-08-31T02:51:30.679Z,20.80
2017-08-31T02:53:56.831Z,20.80
2017-08-31T02:56:22.967Z,20.80
2017-08-31T02:58:49.188Z,20.80
2017-08-31T03:01:15.370Z,20.80
2017-08-31T03:03:41.530Z,20.80
2017-08-31T03:06:07.679Z,20.70
2017-08-31T03:08:33.868Z,20.70
2017-08-31T03:11:00.459Z,20.60
2017-08-31T03:13:26.639Z,20.60
2017-08-31T03:15:52.894Z,20.60
2017-08-31T03:18:19.095Z,20.60
2017-08-31T03:20:45.278Z,20.60
2017-08-31T03:23:11.459Z,20.60
2017-08-31T03:25:37.616Z,20.60
2017-08-31T03:28:03.787Z,20.60
2017-08-31T03:30:29.945Z,20.60
2017-08-31T03:32:56.145Z,20.50
2017-08-31T03:35:22.311Z,20.50
2017-08-31T03:37:48.505Z,20.50
2017-08-31T03:40:14.668Z,20.50
2017-08-31T03:42:40.843Z,20.50
2017-08-31T03:45:07.019Z,20.50
2017-08-31T03:47:33.171Z,20.50
2017-08-31T03:49:59.310Z,20.50
2017-08-31T03:52:25.467Z,20.50
2017-08-31T03:54:51.783Z,20.50
2017-08-31T03:57:17.955Z,20.40
2017-08-31T03:59:44.192Z,20.50
2017-08-31T04:02:11.448Z,20.40
2017-08-31T04:04:37.607Z,20.40
2017-08-31T04:07:03.787Z,20.40
2017-08-31T04:09:29.955Z,20.40
2017-08-31T04:11:56.109Z,20.40
2017-08-31T04:14:22.780Z,20.40
2017-08-31T04:16:48.926Z,20.30
2017-08-31T04:19:15.105Z,20.30
2017-08-31T04:21:41.260Z,20.30
2017-08-31T04:24:07.407Z,20.30
2017-08-31T04:26:33.554Z,20.30
2017-08-31T04:28:59.723Z,20.30
2017-08-31T04:31:25.911Z,20.30
2017-08-31T04:33:52.075Z,20.20
2017-08-31T04:36:18.219Z,20.20
2017-08-31T04:38:44.401Z,20.20
2017-08-31T04:41:10.550Z,20.20
2017-08-31T04:43:36.727Z,20.20
2017-08-31T04:46:02.909Z,20.20
2017-08-31T04:48:29.147Z,20.20
2017-08-31T04:50:55.315Z,20.20
2017-08-31T04:53:21.466Z,20.20
2017-08-31T04:55:47.684Z,20.20
2017-08-31T04:58:13.875Z,20.20
2017-08-31T05:00:40.180Z,20.20
2017-08-31T05:03:06.398Z,20.20
2017-08-31T05:05:32.731Z,20.20
2017-08-31T05:08:00.029Z,20.20
2017-08-31T05:10:26.983Z,20.30
2017-08-31T05:12:53.181Z,20.20
2017-08-31T05:15:19.372Z,20.20
2017-08-31T05:17:45.609Z,20.20
2017-08-31T05:20:11.801Z,20.20
2017-08-31T05:22:38.035Z,20.20
2017-08-31T05:25:07.022Z,20.20
2017-08-31T05:27:33.243Z,20.20
2017-08-31T05:29:59.429Z,20.10
2017-08-31T05:32:25.730Z,20.10
2017-08-31T05:34:51.926Z,20.10
2017-08-31T05:37:18.098Z,20.10
2017-08-31T05:39:44.286Z,20.10
2017-08-31T05:42:10.529Z,20.10
2017-08-31T05:44:36.690Z,20.10
2017-08-31T05:47:02.867Z,20.10
2017-08-31T05:49:29.032Z,20.10
2017-08-31T05:51:55.219Z,20.10
2017-08-31T05:54:21.386Z,20.00
2017-08-31T05:56:47.588Z,20.10
2017-08-31T05:59:13.770Z,20.00
2017-08-31T06:01:39.966Z,20.00
2017-08-31T06:04:06.119Z,20.00
2017-08-31T06:06:32.311Z,20.10
2017-08-31T06:08:58.459Z,20.00
2017-08-31T06:11:24.659Z,20.00
2017-08-31T06:13:50.839Z,20.00
2017-08-31T06:16:17.036Z,20.00
2017-08-31T06:18:43.197Z,20.00
2017-08-31T06:21:09.396Z,20.00
2017-08-31T06:23:35.550Z,20.00
2017-08-31T06:26:01.788Z,20.00
2017-08-31T06:28:27.948Z,20.00
2017-08-31T06:30:54.114Z,20.00
2017-08-31T06:33:20.283Z,20.00
2017-08-31T06:35:46.415Z,20.00
2017-08-31T06:38:12.594Z,20.00
2017-08-31T06:40:38.786Z,20.10
2017-08-31T06:43:04.993Z,20.10
2017-08-31T06:45:31.186Z,20.10
2017-08-31T06:47:57.364Z,20.10
2017-08-31T06:50:23.548Z,20.20
2017-08-31T06:52:49.711Z,20.20
2017-08-31T06:55:15.838Z,20.20
2017-08-31T06:57:42.015Z,20.20
2017-08-31T07:00:08.246Z,20.20
2017-08-31T07:02:36.516Z,20.30
2017-08-31T07:05:02.646Z,20.30
2017-08-31T07:07:28.813Z,20.40
2017-08-31T07:09:54.992Z,20.40
2017-08-31T07:12:21.144Z,20.30
2017-08-31T07:14:47.290Z,20.40
2017-08-31T07:17:13.452Z,20.40
2017-08-31T07:19:39.579Z,20.40
2017-08-31T07:22:05.783Z,20.40
2017-08-31T07:24:31.930Z,20.40
2017-08-31T07:26:58.099Z,20.50
2017-08-31T07:29:24.296Z,20.40
2017-08-31T07:31:50.450Z,20.50
2017-08-31T07:34:16.615Z,20.50
2017-08-31T07:36:42.754Z,20.50
2017-08-31T07:39:08.909Z,20.50
2017-08-31T07:41:35.055Z,20.50
2017-08-31T07:44:01.213Z,20.50
2017-08-31T07:46:27.350Z,20.60
2017-08-31T07:48:53.559Z,20.60
2017-08-31T07:51:19.714Z,20.60
2017-08-31T07:53:46.148Z,20.60
2017-08-31T07:56:12.431Z,20.60
2017-08-31T07:58:38.620Z,20.60
2017-08-31T08:01:04.777Z,20.60
2017-08-31T08:03:30.976Z,20.70
2017-08-31T08:05:57.136Z,20.70
2017-08-31T08:08:23.298Z,20.70
2017-08-31T08:10:49.449Z,20.70
2017-08-31T08:13:15.636Z,20.80
2017-08-31T08:15:41.801Z,20.80
2017-08-31T08:18:07.970Z,20.90
2017-08-31T08:20:34.126Z,20.80
2017-08-31T08:23:00.254Z,20.90
2017-08-31T08:25:26.431Z,21.00
2017-08-31T08:27:52.607Z,21.00
2017-08-31T08:30:18.774Z,20.80
2017-08-31T08:32:44.969Z,20.20
2017-08-31T08:35:11.128Z,19.60
2017-08-31T08:37:37.461Z,19.20
2017-08-31T08:40:03.644Z,18.90
2017-08-31T08:42:29.774Z,18.80
2017-08-31T08:44:56.045Z,18.70
2017-08-31T08:47:22.253Z,18.60
2017-08-31T08:49:48.462Z,18.70
2017-08-31T08:52:14.663Z,18.60
2017-08-31T08:54:41.055Z,18.70
2017-08-31T08:57:07.239Z,18.60
2017-08-31T08:59:33.558Z,18.50
2017-08-31T09:01:59.793Z,18.50
2017-08-31T09:04:25.979Z,18.60
2017-08-31T09:06:52.162Z,18.50
2017-08-31T09:09:18.428Z,18.40
2017-08-31T09:11:44.614Z,18.30
2017-08-31T09:14:11.162Z,18.40
2017-08-31T09:16:37.336Z,18.30
2017-08-31T09:19:03.535Z,18.30
2017-08-31T09:21:30.033Z,18.30
2017-08-31T09:23:56.335Z,18.30
2017-08-31T09:26:23.502Z,18.30
2017-08-31T09:28:49.711Z,18.20
2017-08-31T09:31:16.052Z,18.10
2017-08-31T09:33:42.212Z,18.10
2017-08-31T09:36:08.392Z,18.00
2017-08-31T09:38:34.578Z,18.10
2017-08-31T09:41:00.773Z,18.00
2017-08-31T09:43:26.953Z,17.90
2017-08-31T09:45:53.140Z,17.90
2017-08-31T09:48:19.271Z,18.20
2017-08-31T09:50:45.471Z,18.20
2017-08-31T09:53:11.637Z,18.30
2017-08-31T09:55:37.798Z,18.40
2017-08-31T09:58:03.978Z,18.40
2017-08-31T10:00:30.139Z,18.50
2017-08-31T10:02:56.320Z,18.60
2017-08-31T10:05:22.563Z,18.70
2017-08-31T10:07:48.820Z,18.60
2017-08-31T10:10:14.966Z,18.50
2017-08-31T10:12:41.413Z,18.50
2017-08-31T10:15:07.593Z,18.40
2017-08-31T10:17:33.809Z,18.40
2017-08-31T10:19:59.995Z,18.30
2017-08-31T10:22:26.155Z,18.30
2017-08-31T10:24:52.298Z,18.50
2017-08-31T10:27:18.491Z,18.50
2017-08-31T10:29:45.156Z,18.50
2017-08-31T10:32:11.351Z,18.40
2017-08-31T10:34:37.607Z,18.30
2017-08-31T10:37:03.766Z,18.40
2017-08-31T10:39:31.107Z,18.30
2017-08-31T10:41:57.275Z,18.30
2017-08-31T10:44:23.508Z,18.40
2017-08-31T10:46:49.699Z,18.40
2017-08-31T10:49:15.883Z,18.40
2017-08-31T10:51:42.058Z,18.50
2017-08-31T10:54:08.228Z,18.60
2017-08-31T10:56:34.390Z,18.60
2017-08-31T10:59:00.619Z,18.60
2017-08-31T11:01:26.790Z,18.70
2017-08-31T11:03:53.163Z,18.90
2017-08-31T11:06:19.319Z,18.90
2017-08-31T11:08:45.471Z,18.90
2017-08-31T11:11:11.630Z,18.90
2017-08-31T11:13:37.771Z,18.90
2017-08-31T11:16:03.947Z,19.10
2017-08-31T11:18:30.140Z,19.00
2017-08-31T11:20:56.892Z,19.00
2017-08-31T11:23:23.034Z,18.90
2017-08-31T11:25:49.187Z,18.90
2017-08-31T11:28:15.489Z,18.80
2017-08-31T11:30:41.752Z,18.80
2017-08-31T11:33:08.032Z,18.70
2017-08-31T11:35:34.141Z,18.80
2017-08-31T11:38:01.175Z,18.90
2017-08-31T11:40:27.346Z,18.90
2017-08-31T11:42:53.490Z,18.90
2017-08-31T11:45:19.647Z,19.00
2017-08-31T11:47:45.799Z,19.10
2017-08-31T11:50:11.927Z,19.10
2017-08-31T11:52:38.083Z,19.20
2017-08-31T11:55:05.330Z,19.30
2017-08-31T11:57:32.893Z,19.20
2017-08-31T11:59:59.065Z,19.30
2017-08-31T12:02:25.259Z,19.40
2017-08-31T12:04:51.504Z,19.50
2017-08-31T12:07:18.832Z,19.60
2017-08-31T12:09:45.251Z,19.60
2017-08-31T12:12:11.425Z,19.80
2017-08-31T12:14:37.597Z,20.00
2017-08-31T12:17:03.759Z,20.20
2017-08-31T12:19:29.952Z,20.50
2017-08-31T12:21:57.135Z,20.60
2017-08-31T12:24:23.275Z,20.80
2017-08-31T12:26:49.418Z,21.00
2017-08-31T12:29:15.550Z,21.10
2017-08-31T12:31:41.703Z,21.10
2017-08-31T12:34:07.842Z,21.00
2017-08-31T12:36:34.025Z,20.80
2017-08-31T12:39:00.236Z,20.90
2017-08-31T12:41:26.414Z,21.10
2017-08-31T12:43:52.557Z,20.70
2017-08-31T12:46:18.736Z,20.80
2017-08-31T12:48:44.975Z,20.70
2017-08-31T12:51:11.131Z,20.70
2017-08-31T12:53:37.322Z,20.70
2017-08-31T12:56:03.472Z,20.70
2017-08-31T12:58:29.630Z,20.80
2017-08-31T13:00:55.786Z,20.60
2017-08-31T13:03:23.962Z,20.50
2017-08-31T13:05:50.104Z,20.40
2017-08-31T13:08:16.262Z,20.30
2017-08-31T13:10:42.419Z,20.30
2017-08-31T13:15:45.788Z,20.40
2017-08-31T13:18:11.939Z,20.40
2017-08-31T13:20:38.293Z,20.60
2017-08-31T13:23:04.515Z,20.60
2017-08-31T13:25:30.731Z,20.40
2017-08-31T13:27:56.964Z,20.40
2017-08-31T13:30:23.102Z,20.40
2017-08-31T13:32:49.328Z,20.20
2017-08-31T13:35:15.467Z,20.20
2017-08-31T13:37:41.664Z,20.20
2017-08-31T13:40:07.838Z,20.10
2017-08-31T13:42:34.023Z,20.10
2017-08-31T13:45:00.175Z,20.10
2017-08-31T13:47:26.315Z,20.10
2017-08-31T13:49:52.491Z,20.10
2017-08-31T13:52:19.895Z,19.90
2017-08-31T13:54:46.221Z,20.00
2017-08-31T13:57:12.387Z,19.90
2017-08-31T13:59:38.584Z,19.90
2017-08-31T14:02:04.807Z,19.80
2017-08-31T14:04:31.108Z,19.80
2017-08-31T14:06:57.280Z,19.80
2017-08-31T14:09:23.491Z,19.80
2017-08-31T14:11:49.634Z,19.80
2017-08-31T14:14:15.831Z,19.70
2017-08-31T14:16:41.995Z,19.70
2017-08-31T14:19:08.214Z,19.60
2017-08-31T14:21:36.040Z,19.70
2017-08-31T14:24:02.310Z,19.70
2017-08-31T14:26:28.470Z,19.80
2017-08-31T14:28:54.651Z,19.80
2017-08-31T14:31:20.864Z,19.80
2017-08-31T14:33:47.039Z,19.80
2017-08-31T14:36:13.223Z,19.70
2017-08-31T14:38:39.418Z,19.70
2017-08-31T14:41:06.139Z,19.70
2017-08-31T14:43:32.270Z,19.50
2017-08-31T14:45:58.399Z,19.50
2017-08-31T14:48:24.529Z,19.40
2017-08-31T14:50:50.727Z,19.40
2017-08-31T14:53:16.899Z,19.30
2017-08-31T14:55:43.081Z,19.30
2017-08-31T14:58:09.239Z,19.20
2017-08-31T15:00:35.435Z,19.10
2017-08-31T15:03:01.609Z,19.00
2017-08-31T15:05:27.796Z,18.90
2017-08-31T15:07:53.949Z,18.90
2017-08-31T15:10:20.923Z,18.80
2017-08-31T15:12:48.500Z,18.80
2017-08-31T15:17:56.415Z,18.70
2017-08-31T15:20:22.567Z,18.70
2017-08-31T15:22:48.689Z,18.70
2017-08-31T15:25:19.759Z,18.70
2017-08-31T15:27:45.947Z,18.70
2017-08-31T15:30:12.094Z,18.70
2017-08-31T15:32:39.905Z,18.60
2017-08-31T15:35:06.095Z,18.60
2017-08-31T15:37:32.250Z,18.60
2017-08-31T15:39:58.438Z,18.70
2017-08-31T15:42:27.585Z,18.70
2017-08-31T15:44:53.802Z,18.70
2017-08-31T15:47:19.985Z,18.70
2017-08-31T15:49:46.143Z,18.60
2017-08-31T15:52:20.461Z,18.50
2017-08-31T15:54:48.774Z,18.60
2017-08-31T15:57:14.935Z,18.70
2017-08-31T15:59:47.320Z,18.60
2017-08-31T16:02:13.603Z,18.50
2017-08-31T16:04:39.754Z,18.50
2017-08-31T16:07:05.893Z,18.50
2017-08-31T16:09:32.011Z,18.50
2017-08-31T16:11:58.175Z,18.40
2017-08-31T16:14:24.323Z,18.40
2017-08-31T16:16:50.707Z,18.50
2017-08-31T16:19:16.883Z,18.40
2017-08-31T16:21:43.023Z,18.40
2017-08-31T16:24:09.168Z,18.40
2017-08-31T16:26:35.308Z,18.40
2017-08-31T16:29:01.526Z,18.40
2017-08-31T16:31:27.694Z,18.50
2017-08-31T16:33:53.845Z,18.50
2017-08-31T16:36:22.025Z,18.50
2017-08-31T16:38:50.413Z,18.40
2017-08-31T16:41:16.534Z,18.40
2017-08-31T16:43:42.676Z,18.30
2017-08-31T16:46:08.968Z,18.40
2017-08-31T16:48:35.198Z,18.40
2017-08-31T16:51:01.344Z,18.30
2017-08-31T16:53:27.494Z,18.20
2017-08-31T16:55:53.638Z,18.20
2017-08-31T16:58:19.830Z,18.20
2017-08-31T17:00:45.979Z,18.20
2017-08-31T17:03:12.123Z,18.10
2017-08-31T17:05:38.256Z,18.00
2017-08-31T17:08:04.684Z,18.00
2017-08-31T17:10:33.009Z,18.00
2017-08-31T17:12:59.554Z,18.00
2017-08-31T17:15:25.826Z,18.00
2017-08-31T17:17:52.084Z,18.00
2017-08-31T17:20:18.701Z,18.00
2017-08-31T17:22:44.939Z,18.10
2017-08-31T17:25:11.086Z,18.10
2017-08-31T17:27:37.203Z,18.00
2017-08-31T17:30:03.348Z,18.10
2017-08-31T17:32:30.759Z,18.10
2017-08-31T17:34:58.998Z,18.00
2017-08-31T17:37:27.467Z,17.90
2017-08-31T17:39:53.639Z,17.90
2017-08-31T17:42:19.906Z,17.90
2017-08-31T17:44:46.095Z,17.90
2017-08-31T17:47:12.242Z,17.90
2017-08-31T17:49:38.427Z,17.80
2017-08-31T17:52:05.347Z,17.80
2017-08-31T17:54:31.531Z,17.80
2017-08-31T17:56:57.726Z,17.80
2017-08-31T17:59:23.899Z,17.80
2017-08-31T18:01:50.060Z,17.80
2017-08-31T18:04:16.202Z,17.80
2017-08-31T18:06:42.326Z,17.70
2017-08-31T18:09:08.486Z,17.70
2017-08-31T18:11:34.724Z,17.70
2017-08-31T18:14:01.220Z,17.70
2017-08-31T18:16:27.434Z,17.70
2017-08-31T18:18:53.591Z,17.70
2017-08-31T18:21:19.764Z,17.70
2017-08-31T18:23:45.969Z,17.70
2017-08-31T18:26:12.139Z,17.60
2017-08-31T18:28:38.315Z,17.60
2017-08-31T18:31:04.556Z,17.50
2017-08-31T18:33:30.729Z,17.40
2017-08-31T18:35:56.939Z,17.50
2017-08-31T18:38:23.063Z,17.30
2017-08-31T18:40:49.208Z,17.40
2017-08-31T18:43:15.387Z,17.30
2017-08-31T18:45:41.608Z,17.30
2017-08-31T18:48:07.759Z,17.20
2017-08-31T18:50:33.910Z,17.20
2017-08-31T18:53:00.042Z,17.20
2017-08-31T18:55:26.251Z,17.20
2017-08-31T18:57:52.415Z,17.10
2017-08-31T19:00:18.623Z,17.10
2017-08-31T19:02:44.807Z,17.10
2017-08-31T19:05:10.959Z,17.10
2017-08-31T19:07:37.098Z,17.00
2017-08-31T19:10:03.291Z,16.80
2017-08-31T19:12:29.448Z,16.90
2017-08-31T19:14:55.594Z,16.90
2017-08-31T19:17:22.583Z,16.80
2017-08-31T19:19:48.831Z,16.90
2017-08-31T19:22:15.006Z,16.90
2017-08-31T19:24:42.335Z,16.90
2017-08-31T19:27:08.503Z,16.80
2017-08-31T19:29:35.397Z,16.80
2017-08-31T19:32:01.534Z,16.80
2017-08-31T19:34:27.706Z,16.70
2017-08-31T19:36:53.853Z,16.70
2017-08-31T19:39:20.005Z,16.60
2017-08-31T19:41:46.183Z,16.60
2017-08-31T19:44:12.323Z,16.60
2017-08-31T19:46:38.486Z,16.60
2017-08-31T19:49:04.609Z,16.60
2017-08-31T19:51:30.785Z,16.50
2017-08-31T19:53:56.920Z,16.50
2017-08-31T19:56:23.051Z,16.50
2017-08-31T19:58:49.234Z,16.40
2017-08-31T20:01:15.383Z,16.40
2017-08-31T20:03:41.541Z,16.30
2017-08-31T20:06:07.702Z,16.10
2017-08-31T20:08:33.850Z,16.10
2017-08-31T20:10:59.978Z,16.20
2017-08-31T20:13:26.130Z,16.10
2017-08-31T20:15:52.266Z,16.10
2017-08-31T20:18:18.422Z,16.10
2017-08-31T20:20:44.584Z,16.00
2017-08-31T20:23:10.828Z,16.00
2017-08-31T20:25:37.008Z,16.10
2017-08-31T20:28:03.191Z,16.10
2017-08-31T20:30:29.343Z,16.00
2017-08-31T20:32:55.552Z,15.90
2017-08-31T20:35:21.726Z,15.90
2017-08-31T20:37:48.051Z,15.80
2017-08-31T20:40:14.214Z,15.70
2017-08-31T20:42:40.420Z,15.70
2017-08-31T20:45:06.681Z,15.70
2017-08-31T20:47:32.870Z,15.60
2017-08-31T20:49:59.021Z,15.50
2017-08-31T20:52:25.396Z,15.60
2017-08-31T20:54:51.588Z,15.50
2017-08-31T20:57:17.739Z,15.60
2017-08-31T20:59:44.054Z,15.60
2017-08-31T21:02:10.231Z,15.60
2017-08-31T21:04:36.395Z,15.60
2017-08-31T21:07:02.674Z,15.60
2017-08-31T21:09:28.881Z,15.60
2017-08-31T21:11:55.135Z,15.60
2017-08-31T21:14:21.295Z,15.60
2017-08-31T21:16:47.496Z,15.50
2017-08-31T21:19:13.796Z,15.50
2017-08-31T21:21:39.927Z,15.50
2017-08-31T21:24:06.417Z,15.50
2017-08-31T21:26:32.615Z,15.40
2017-08-31T21:28:58.803Z,15.50
2017-08-31T21:31:24.940Z,15.50
2017-08-31T21:33:51.095Z,15.50
2017-08-31T21:36:17.257Z,15.40
2017-08-31T21:38:43.402Z,15.30
2017-08-31T21:41:09.607Z,15.30
2017-08-31T21:43:35.770Z,15.20
2017-08-31T21:46:01.908Z,15.20
2017-08-31T21:48:28.090Z,15.30
2017-08-31T21:50:54.203Z,15.30
2017-08-31T21:53:20.420Z,15.30
2017-08-31T21:55:46.600Z,15.30
2017-08-31T21:58:12.751Z,15.30
2017-08-31T22:00:38.919Z,15.30
2017-08-31T22:03:05.050Z,15.30
2017-08-31T22:05:31.191Z,15.30
2017-08-31T22:07:57.334Z,15.40
2017-08-31T22:10:23.508Z,15.40
2017-08-31T22:12:49.679Z,15.30
2017-08-31T22:15:15.852Z,15.30
2017-08-31T22:17:41.978Z,15.30
2017-08-31T22:20:08.127Z,15.30
2017-08-31T22:22:34.316Z,15.30
2017-08-31T22:25:00.466Z,15.30
2017-08-31T22:27:26.598Z,15.30
2017-08-31T22:29:52.756Z,15.10
2017-08-31T22:32:18.896Z,15.10
2017-08-31T22:34:45.784Z,15.10
2017-08-31T22:37:11.918Z,15.10
2017-08-31T22:39:38.148Z,15.10
2017-08-31T22:42:04.286Z,15.20
2017-08-31T22:44:30.454Z,15.20
2017-08-31T22:46:56.574Z,15.10
2017-08-31T22:49:22.752Z,15.10
2017-08-31T22:51:48.915Z,15.10
2017-08-31T22:54:20.124Z,15.10
2017-08-31T22:56:51.331Z,15.10
2017-08-31T22:59:17.470Z,15.10
2017-08-31T23:01:43.646Z,14.90
2017-08-31T23:04:09.826Z,14.80
2017-08-31T23:06:35.951Z,14.70
2017-08-31T23:09:02.113Z,14.60
2017-08-31T23:11:28.307Z,14.60
2017-08-31T23:13:54.434Z,14.60
2017-08-31T23:16:20.617Z,14.60
2017-08-31T23:18:46.737Z,14.60
2017-08-31T23:21:12.938Z,14.70
2017-08-31T23:23:39.061Z,14.60
2017-08-31T23:26:05.543Z,14.60
2017-08-31T23:28:31.658Z,14.70
2017-08-31T23:30:57.810Z,14.70
2017-08-31T23:33:23.933Z,14.60
2017-08-31T23:35:50.086Z,14.60
2017-08-31T23:38:16.215Z,14.40
2017-08-31T23:40:42.361Z,14.50
2017-08-31T23:43:08.481Z,14.40
2017-08-31T23:45:34.675Z,14.40
2017-08-31T23:48:00.852Z,14.30
2017-08-31T23:50:26.995Z,14.20
2017-08-31T23:52:53.156Z,14.20
2017-08-31T23:55:19.303Z,14.20
2017-08-31T23:57:45.444Z,14.00
